< < Back
Terminal Aerodrome Forecast


Current Version              Previous Versions:   1  2  3  4  5  6  7  8  9  

Terminal Aerodrome Forecast

614
FTUS42 KTAE 031200 AAA
TAFVLD
TAF AMD
KVLD 031214Z 0312/0412 00000KT 3SM BR BKN002
      TEMPO 0312/0315 1/4SM FG VV002
     FM031500 13006KT 4SM BR OVC015
     FM032100 19009KT P6SM SCT025 BKN050
     FM040300 18005KT 4SM BR OVC025=

Latest METAR

469
SAUS70 KWBC 032000 RRB
MTRVLD
METAR KVLD 031953Z 20005KT 10SM FEW049 BKN070 27/16 A3012 RMK AO2 SLP205
T02720161


USA.gov is the U.S. government's official web portal to all federal, state and local government web resources and services.